Time;durP1;ratioP1;P1;durP2;ratioP2;P2;SDS_P1;SDS_P2;PMS_P1;PMS_P2;Temp;Humidity;BMP_temperature;BMP_pressure;BME280_temperature;BME280_humidity;BME280_pressure;Samples;Min_cycle;Max_cycle;Signal;HPM_P1;HPM_P2
2022/11/25 00:00:24;;;;;;;;;;;7.50;97.00;;;;;;5078089;28;19999;-72
2022/11/25 00:02:49;;;;;;;;;;;7.50;97.10;;;;;;5061200;28;20332;-72
2022/11/25 00:05:15;;;;;;;;;;;7.50;97.00;;;;;;5065363;28;19917;-72
2022/11/25 00:07:40;;;;;;;;;;;7.50;97.00;;;;;;5066757;28;19916;-72
2022/11/25 00:10:06;;;;;;;;;;;7.50;97.00;;;;;;5067657;28;19977;-72
2022/11/25 00:12:32;;;;;;;;;;;7.50;97.00;;;;;;5066351;28;19925;-72
2022/11/25 00:14:57;;;;;;;;;;;7.60;97.00;;;;;;5066649;28;19913;-72
2022/11/25 00:17:23;;;;;;;;;;;7.60;97.00;;;;;;5066882;28;20056;-72
2022/11/25 00:19:49;;;;;;;;;;;7.60;97.00;;;;;;5070763;28;19920;-72
2022/11/25 00:22:15;;;;;;;;;;;7.60;97.10;;;;;;5086705;28;19912;-72
2022/11/25 00:24:40;;;;;;;;;;;7.50;97.00;;;;;;5076491;28;19939;-72
2022/11/25 00:27:06;;;;;;;;;;;7.60;97.10;;;;;;5071122;28;19923;-73
2022/11/25 00:29:31;;;;;;;;;;;7.60;97.10;;;;;;5066191;28;19927;-72
2022/11/25 00:31:57;;;;;;;;;;;7.60;97.10;;;;;;5066412;28;19923;-72
2022/11/25 00:34:22;;;;;;;;;;;7.60;97.10;;;;;;5066620;28;19912;-72
2022/11/25 00:36:48;;;;;;;;;;;7.60;97.10;;;;;;5063579;28;19920;-72
2022/11/25 00:39:14;;;;;;;;;;;7.60;97.10;;;;;;5065398;28;20057;-73
2022/11/25 00:44:39;;;;;;;;;;;7.60;97.10;;;;;;5066402;28;19964;-72
2022/11/25 00:47:15;;;;;;;;;;;7.60;97.10;;;;;;5066486;28;19913;-72
2022/11/25 00:49:42;;;;;;;;;;;7.60;97.10;;;;;;5069341;28;19916;-72
2022/11/25 00:52:08;;;;;;;;;;;7.60;97.10;;;;;;5086498;28;20467;-72
2022/11/25 00:54:34;;;;;;;;;;;7.60;97.10;;;;;;5085782;28;19973;-72
2022/11/25 00:56:59;;;;;;;;;;;7.60;97.10;;;;;;5073485;28;19917;-72
2022/11/25 00:59:25;;;;;;;;;;;7.60;97.10;;;;;;5065345;28;19919;-73
2022/11/25 01:01:51;;;;;;;;;;;7.60;97.20;;;;;;5066143;28;20396;-73
2022/11/25 01:04:16;;;;;;;;;;;7.60;97.10;;;;;;5066322;28;19908;-72
2022/11/25 01:06:42;;;;;;;;;;;7.60;97.10;;;;;;5064214;28;19912;-72
2022/11/25 01:09:08;;;;;;;;;;;7.60;97.10;;;;;;5046152;28;19916;-72
2022/11/25 01:11:33;;;;;;;;;;;7.60;97.10;;;;;;5063055;28;19951;-72
2022/11/25 01:13:59;;;;;;;;;;;7.60;97.20;;;;;;5065765;28;20245;-72
2022/11/25 01:16:25;;;;;;;;;;;7.60;97.10;;;;;;5066158;28;20354;-72
2022/11/25 01:18:50;;;;;;;;;;;7.60;97.20;;;;;;5069919;28;19973;-72
2022/11/25 01:21:16;;;;;;;;;;;7.60;97.20;;;;;;5085862;28;19947;-73
2022/11/25 01:23:42;;;;;;;;;;;7.60;97.20;;;;;;5084028;28;19920;-72
2022/11/25 01:26:11;;;;;;;;;;;7.60;97.20;;;;;;5084671;28;19969;-73
2022/11/25 01:28:37;;;;;;;;;;;7.60;97.30;;;;;;5070171;28;19923;-72
2022/11/25 01:31:03;;;;;;;;;;;7.60;97.20;;;;;;5068880;28;19912;-72
2022/11/25 01:33:31;;;;;;;;;;;7.60;97.20;;;;;;5068669;28;20373;-72
2022/11/25 01:36:15;;;;;;;;;;;7.60;97.20;;;;;;5069581;28;19977;-72
2022/11/25 01:38:41;;;;;;;;;;;7.60;97.20;;;;;;5050886;28;19916;-72
2022/11/25 01:41:08;;;;;;;;;;;7.60;97.20;;;;;;5057368;28;19912;-73
2022/11/25 01:43:34;;;;;;;;;;;7.60;97.50;;;;;;5079012;28;19912;-72
2022/11/25 01:46:08;;;;;;;;;;;7.60;97.20;;;;;;5069290;28;20357;-72
2022/11/25 01:48:47;;;;;;;;;;;7.70;97.20;;;;;;5069277;28;20007;-72
2022/11/25 01:51:35;;;;;;;;;;;7.60;97.20;;;;;;5084607;28;19912;-72
2022/11/25 01:54:02;;;;;;;;;;;7.70;97.20;;;;;;5068300;28;20151;-72
2022/11/25 01:56:29;;;;;;;;;;;7.60;97.30;;;;;;5089405;28;19947;-72
2022/11/25 01:58:55;;;;;;;;;;;7.60;97.20;;;;;;5088085;28;19916;-72
2022/11/25 02:01:20;;;;;;;;;;;7.60;97.20;;;;;;5060709;28;19913;-73
2022/11/25 02:03:47;;;;;;;;;;;7.60;97.20;;;;;;5049711;28;19913;-72
2022/11/25 02:06:42;;;;;;;;;;;7.60;97.30;;;;;;5065803;28;19916;-72
2022/11/25 02:09:08;;;;;;;;;;;7.60;97.30;;;;;;5056656;28;20742;-73
2022/11/25 02:11:34;;;;;;;;;;;7.70;97.30;;;;;;5048577;28;19920;-72
2022/11/25 02:14:01;;;;;;;;;;;7.70;97.30;;;;;;5052978;28;19955;-73
2022/11/25 02:16:26;;;;;;;;;;;7.70;97.30;;;;;;5067260;28;19912;-72
2022/11/25 02:18:52;;;;;;;;;;;7.70;97.30;;;;;;5068753;28;19912;-73
2022/11/25 02:21:23;;;;;;;;;;;7.60;97.20;;;;;;5068275;28;20417;-73
2022/11/25 02:23:56;;;;;;;;;;;7.70;97.30;;;;;;5068192;28;19918;-72
2022/11/25 02:26:21;;;;;;;;;;;7.60;97.30;;;;;;5068337;28;20459;-72
2022/11/25 02:28:47;;;;;;;;;;;7.70;97.30;;;;;;5067314;28;19923;-72
2022/11/25 02:31:17;;;;;;;;;;;7.70;97.30;;;;;;5069077;28;19916;-72
2022/11/25 02:33:43;;;;;;;;;;;7.70;97.30;;;;;;5050983;28;19912;-72
2022/11/25 02:36:11;;;;;;;;;;;7.70;97.20;;;;;;5048309;28;20380;-72
2022/11/25 02:38:39;;;;;;;;;;;7.70;97.30;;;;;;5048145;28;19909;-72
2022/11/25 02:41:25;;;;;;;;;;;7.70;97.30;;;;;;5048110;28;20510;-73
2022/11/25 02:43:51;;;;;;;;;;;7.70;97.30;;;;;;5060529;28;19916;-72
2022/11/25 02:46:18;;;;;;;;;;;7.70;97.30;;;;;;5067560;28;20384;-71
2022/11/25 02:48:43;;;;;;;;;;;7.70;97.30;;;;;;5086342;28;19920;-72
2022/11/25 02:51:10;;;;;;;;;;;7.70;97.30;;;;;;5083877;28;20391;-72
2022/11/25 02:53:36;;;;;;;;;;;7.70;97.30;;;;;;5087705;28;19920;-72
2022/11/25 02:56:02;;;;;;;;;;;7.70;97.30;;;;;;5088204;28;20552;-72
2022/11/25 02:58:28;;;;;;;;;;;7.70;97.30;;;;;;5087857;28;20242;-72
2022/11/25 03:00:53;;;;;;;;;;;7.70;97.50;;;;;;5073120;28;19912;-72
2022/11/25 03:03:19;;;;;;;;;;;7.70;97.30;;;;;;5067362;28;20403;-72
2022/11/25 03:05:44;;;;;;;;;;;7.70;97.30;;;;;;5085530;28;20253;-72
2022/11/25 03:08:10;;;;;;;;;;;7.70;97.20;;;;;;5073534;28;19986;-72
2022/11/25 03:10:36;;;;;;;;;;;7.70;97.30;;;;;;5067080;28;19920;-71
2022/11/25 03:13:02;;;;;;;;;;;7.70;97.20;;;;;;5067584;28;20007;-72
2022/11/25 03:15:28;;;;;;;;;;;7.70;97.30;;;;;;5067601;28;19917;-72
2022/11/25 03:17:54;;;;;;;;;;;7.80;97.20;;;;;;5067376;28;19916;-72
2022/11/25 03:20:19;;;;;;;;;;;7.80;97.20;;;;;;5074750;28;19912;-72
2022/11/25 03:22:45;;;;;;;;;;;7.80;97.20;;;;;;5088049;28;20304;-72
2022/11/25 03:25:11;;;;;;;;;;;7.80;97.20;;;;;;5087447;28;19912;-73
2022/11/25 03:27:37;;;;;;;;;;;7.80;97.20;;;;;;5086166;28;19917;-72
2022/11/25 03:30:03;;;;;;;;;;;7.80;97.20;;;;;;5081321;28;20398;-72
2022/11/25 03:32:29;;;;;;;;;;;7.80;97.20;;;;;;5067367;28;20297;-73
2022/11/25 03:34:54;;;;;;;;;;;7.80;97.20;;;;;;5067140;28;19909;-72
2022/11/25 03:37:19;;;;;;;;;;;7.80;97.20;;;;;;5067336;28;19919;-72
2022/11/25 03:39:45;;;;;;;;;;;7.80;97.20;;;;;;5066629;28;19962;-73
2022/11/25 03:42:11;;;;;;;;;;;7.80;97.30;;;;;;5067009;28;20268;-72
2022/11/25 03:44:36;;;;;;;;;;;7.80;97.20;;;;;;5067054;28;19908;-72
2022/11/25 03:47:02;;;;;;;;;;;7.80;97.20;;;;;;5067235;28;19920;-73
2022/11/25 03:49:28;;;;;;;;;;;7.80;97.20;;;;;;5067942;28;20007;-73
2022/11/25 03:51:53;;;;;;;;;;;7.80;97.20;;;;;;5087259;28;19943;-72
2022/11/25 03:54:19;;;;;;;;;;;7.80;97.20;;;;;;5081329;28;19932;-73
2022/11/25 03:56:44;;;;;;;;;;;7.80;97.20;;;;;;5086986;28;19916;-73
2022/11/25 03:59:10;;;;;;;;;;;7.80;97.20;;;;;;5087221;28;20119;-72
2022/11/25 04:01:36;;;;;;;;;;;7.80;97.20;;;;;;5067638;28;20058;-72
2022/11/25 04:04:02;;;;;;;;;;;7.80;97.20;;;;;;5066736;28;19920;-73
2022/11/25 04:06:27;;;;;;;;;;;7.90;97.30;;;;;;5067003;28;20264;-73
2022/11/25 04:08:53;;;;;;;;;;;7.90;97.20;;;;;;5066762;28;19974;-72
2022/11/25 04:11:18;;;;;;;;;;;7.90;97.20;;;;;;5066697;28;19920;-72
2022/11/25 04:13:44;;;;;;;;;;;7.90;97.30;;;;;;5066801;28;20365;-72
2022/11/25 04:16:17;;;;;;;;;;;7.90;97.30;;;;;;5066852;28;19963;-72
2022/11/25 04:18:43;;;;;;;;;;;7.90;97.20;;;;;;5066910;28;20265;-72
2022/11/25 04:21:08;;;;;;;;;;;7.90;97.20;;;;;;5080091;28;19912;-72
2022/11/25 04:23:34;;;;;;;;;;;7.90;97.20;;;;;;5065967;28;19991;-72
2022/11/25 04:25:59;;;;;;;;;;;7.90;97.30;;;;;;5080947;28;20450;-72
2022/11/25 04:28:25;;;;;;;;;;;7.90;97.30;;;;;;5075020;28;19921;-72
2022/11/25 04:30:50;;;;;;;;;;;7.90;97.30;;;;;;5066033;28;20011;-72
2022/11/25 04:33:15;;;;;;;;;;;7.90;97.30;;;;;;5066242;28;19912;-72
2022/11/25 04:35:41;;;;;;;;;;;7.90;97.20;;;;;;5066147;28;19955;-72
2022/11/25 04:38:06;;;;;;;;;;;8.00;97.20;;;;;;5052615;28;19913;-73
2022/11/25 04:40:32;;;;;;;;;;;8.00;97.20;;;;;;5046354;28;19977;-73
2022/11/25 04:42:57;;;;;;;;;;;8.00;97.30;;;;;;5049944;28;20569;-72
2022/11/25 04:45:23;;;;;;;;;;;8.00;97.30;;;;;;5067214;28;19917;-73
2022/11/25 04:47:48;;;;;;;;;;;8.00;97.30;;;;;;5066368;28;19928;-73
2022/11/25 04:50:15;;;;;;;;;;;8.00;97.30;;;;;;5073965;28;19919;-73
2022/11/25 04:52:41;;;;;;;;;;;8.00;97.30;;;;;;5088913;28;20592;-72
2022/11/25 04:55:07;;;;;;;;;;;8.00;97.30;;;;;;5089067;28;19915;-72
2022/11/25 04:57:32;;;;;;;;;;;8.00;97.30;;;;;;5090513;28;19912;-73
2022/11/25 04:59:57;;;;;;;;;;;8.00;97.40;;;;;;5084999;28;19954;-73
2022/11/25 05:02:24;;;;;;;;;;;8.00;97.30;;;;;;5071200;28;19978;-72
2022/11/25 05:04:52;;;;;;;;;;;8.00;97.30;;;;;;5069261;28;20018;-73
2022/11/25 05:07:18;;;;;;;;;;;8.00;97.30;;;;;;5062916;28;19913;-73
2022/11/25 05:09:44;;;;;;;;;;;8.00;97.30;;;;;;5049555;28;19928;-72
2022/11/25 05:12:14;;;;;;;;;;;8.00;97.40;;;;;;5049898;28;19921;-72
2022/11/25 05:14:40;;;;;;;;;;;8.00;97.30;;;;;;5049854;28;19917;-73
2022/11/25 05:17:06;;;;;;;;;;;8.00;97.30;;;;;;5057223;28;20042;-73
2022/11/25 05:19:35;;;;;;;;;;;8.00;97.30;;;;;;5089241;28;20298;-72
2022/11/25 05:22:00;;;;;;;;;;;8.00;97.30;;;;;;5089293;28;20674;-72
2022/11/25 05:24:26;;;;;;;;;;;8.00;97.30;;;;;;5089917;28;20007;-72
2022/11/25 05:26:51;;;;;;;;;;;8.00;97.40;;;;;;5089838;28;20348;-72
2022/11/25 05:29:17;;;;;;;;;;;8.00;97.30;;;;;;5089665;28;19939;-73
2022/11/25 05:31:42;;;;;;;;;;;8.00;97.30;;;;;;5069789;28;19916;-72
2022/11/25 05:34:08;;;;;;;;;;;8.00;97.40;;;;;;5070672;28;19923;-73
2022/11/25 05:36:33;;;;;;;;;;;8.00;97.30;;;;;;5068366;28;19912;-73
2022/11/25 05:38:59;;;;;;;;;;;8.00;97.40;;;;;;5048800;28;20494;-73
2022/11/25 05:41:25;;;;;;;;;;;8.00;97.30;;;;;;5048861;28;19913;-72
2022/11/25 05:43:50;;;;;;;;;;;8.00;97.40;;;;;;5061673;28;19935;-72
2022/11/25 05:46:16;;;;;;;;;;;8.00;97.40;;;;;;5069447;28;19952;-72
2022/11/25 05:48:41;;;;;;;;;;;8.00;97.40;;;;;;5069098;28;20549;-73
2022/11/25 05:51:08;;;;;;;;;;;8.00;97.30;;;;;;5073219;28;19959;-73
2022/11/25 05:53:33;;;;;;;;;;;8.00;97.30;;;;;;5068763;28;19916;-73
2022/11/25 05:56:00;;;;;;;;;;;8.00;97.30;;;;;;5083423;28;19957;-73
2022/11/25 05:58:27;;;;;;;;;;;8.00;97.30;;;;;;5089328;28;20014;-72
2022/11/25 06:00:52;;;;;;;;;;;8.10;97.30;;;;;;5076078;28;20669;-73
2022/11/25 06:03:18;;;;;;;;;;;8.00;97.30;;;;;;5068265;28;19913;-72
2022/11/25 06:05:43;;;;;;;;;;;8.00;97.30;;;;;;5068850;28;19966;-73
2022/11/25 06:08:09;;;;;;;;;;;8.00;97.30;;;;;;5069005;28;19920;-72
2022/11/25 06:10:37;;;;;;;;;;;8.10;97.30;;;;;;5068277;28;19951;-72
2022/11/25 06:13:03;;;;;;;;;;;8.00;97.30;;;;;;5068291;28;19917;-72
2022/11/25 06:15:28;;;;;;;;;;;8.00;97.30;;;;;;5068712;28;19986;-72
2022/11/25 06:17:54;;;;;;;;;;;8.00;97.30;;;;;;5068568;28;20261;-72
2022/11/25 06:20:20;;;;;;;;;;;8.10;97.40;;;;;;5070809;28;19947;-72
2022/11/25 06:22:46;;;;;;;;;;;8.00;97.40;;;;;;5067488;28;19913;-72
2022/11/25 06:25:11;;;;;;;;;;;8.00;97.50;;;;;;5077523;28;19916;-72
2022/11/25 06:27:37;;;;;;;;;;;8.00;97.50;;;;;;5087135;28;20499;-72
2022/11/25 06:30:03;;;;;;;;;;;8.00;97.30;;;;;;5080806;28;19912;-73
2022/11/25 06:32:28;;;;;;;;;;;8.10;97.40;;;;;;5068417;28;19913;-72
2022/11/25 06:34:54;;;;;;;;;;;8.10;97.40;;;;;;5068157;28;19935;-72
2022/11/25 06:37:19;;;;;;;;;;;8.10;97.40;;;;;;5061054;28;19982;-72
2022/11/25 06:39:45;;;;;;;;;;;8.10;97.70;;;;;;5048226;28;19917;-72
2022/11/25 06:42:10;;;;;;;;;;;8.00;97.40;;;;;;5068590;28;20007;-73
2022/11/25 06:44:36;;;;;;;;;;;8.10;97.40;;;;;;5067892;28;19913;-73
2022/11/25 06:47:01;;;;;;;;;;;8.10;97.40;;;;;;5067664;28;20344;-72
2022/11/25 06:49:28;;;;;;;;;;;8.10;97.40;;;;;;5068710;28;19994;-72
2022/11/25 06:51:53;;;;;;;;;;;8.10;97.40;;;;;;5088361;28;20566;-72
2022/11/25 06:54:19;;;;;;;;;;;8.10;97.50;;;;;;5088237;28;19908;-73
2022/11/25 06:56:44;;;;;;;;;;;8.10;97.40;;;;;;5086089;28;20009;-72
2022/11/25 06:59:10;;;;;;;;;;;8.10;97.50;;;;;;5067804;28;20021;-72
2022/11/25 07:01:35;;;;;;;;;;;8.00;97.40;;;;;;5067410;28;19916;-73
2022/11/25 07:04:03;;;;;;;;;;;8.10;97.50;;;;;;5067190;28;20007;-72
2022/11/25 07:06:29;;;;;;;;;;;8.10;97.50;;;;;;5067485;28;19919;-72
2022/11/25 07:08:55;;;;;;;;;;;8.10;97.60;;;;;;5047636;28;19913;-73
2022/11/25 07:11:20;;;;;;;;;;;8.10;97.50;;;;;;5047736;28;19920;-72
2022/11/25 07:13:46;;;;;;;;;;;8.10;97.50;;;;;;5055330;28;19923;-73
2022/11/25 07:16:12;;;;;;;;;;;8.10;97.50;;;;;;5067164;28;20446;-72
2022/11/25 07:18:38;;;;;;;;;;;8.10;97.50;;;;;;5067229;28;19918;-73
2022/11/25 07:21:04;;;;;;;;;;;8.10;97.50;;;;;;5081416;28;20006;-73
2022/11/25 07:23:30;;;;;;;;;;;8.10;97.50;;;;;;5087702;28;19919;-72
2022/11/25 07:26:00;;;;;;;;;;;8.10;97.50;;;;;;5087619;28;19919;-73
2022/11/25 07:28:26;;;;;;;;;;;8.10;97.50;;;;;;5087693;28;19956;-73
2022/11/25 07:30:51;;;;;;;;;;;8.10;97.50;;;;;;5073673;28;20288;-73
2022/11/25 07:33:17;;;;;;;;;;;8.10;97.50;;;;;;5067005;28;19919;-72
2022/11/25 07:35:42;;;;;;;;;;;8.10;97.50;;;;;;5067249;28;19951;-72
2022/11/25 07:38:08;;;;;;;;;;;8.10;97.70;;;;;;5066351;28;19916;-72
2022/11/25 07:40:33;;;;;;;;;;;8.10;97.50;;;;;;5068480;28;19916;-72
2022/11/25 07:42:59;;;;;;;;;;;8.10;97.60;;;;;;5065847;28;20692;-73
2022/11/25 07:45:24;;;;;;;;;;;8.10;97.50;;;;;;5067094;28;19912;-72
2022/11/25 07:47:50;;;;;;;;;;;8.10;97.50;;;;;;5067524;28;20102;-73
2022/11/25 07:50:15;;;;;;;;;;;8.10;97.50;;;;;;5074680;28;20049;-73
2022/11/25 07:52:41;;;;;;;;;;;8.10;97.50;;;;;;5087126;28;19916;-72
2022/11/25 07:55:06;;;;;;;;;;;8.10;97.50;;;;;;5086798;28;20491;-72
2022/11/25 07:57:32;;;;;;;;;;;8.10;97.60;;;;;;5068303;28;20632;-72
2022/11/25 07:59:57;;;;;;;;;;;8.10;97.50;;;;;;5066824;28;19913;-73
2022/11/25 08:02:23;;;;;;;;;;;8.10;97.50;;;;;;5067030;28;20453;-73
2022/11/25 08:04:48;;;;;;;;;;;8.10;97.50;;;;;;5067906;28;19923;-72
2022/11/25 08:07:14;;;;;;;;;;;8.10;97.50;;;;;;5060486;28;20381;-72
2022/11/25 08:09:39;;;;;;;;;;;8.10;97.50;;;;;;5046564;28;20026;-72
2022/11/25 08:12:05;;;;;;;;;;;8.10;97.50;;;;;;5046296;28;20710;-72
2022/11/25 08:14:31;;;;;;;;;;;8.10;97.50;;;;;;5046729;28;19948;-72
2022/11/25 08:16:56;;;;;;;;;;;8.10;97.50;;;;;;5046918;28;19982;-72
2022/11/25 08:19:22;;;;;;;;;;;8.10;97.60;;;;;;5047500;28;19923;-73
2022/11/25 08:21:47;;;;;;;;;;;8.10;97.50;;;;;;5073379;28;19916;-73
2022/11/25 08:24:17;;;;;;;;;;;8.20;97.60;;;;;;5066289;28;19912;-72
2022/11/25 08:26:42;;;;;;;;;;;8.10;97.50;;;;;;5065285;28;19924;-72
2022/11/25 08:29:10;;;;;;;;;;;8.20;97.60;;;;;;5070304;28;19916;-73
2022/11/25 08:31:36;;;;;;;;;;;8.20;97.60;;;;;;5068793;28;19959;-73
2022/11/25 08:34:03;;;;;;;;;;;8.10;97.50;;;;;;5070805;28;19944;-72
2022/11/25 08:36:30;;;;;;;;;;;8.20;97.50;;;;;;5070539;28;19912;-72
2022/11/25 08:38:58;;;;;;;;;;;8.20;97.50;;;;;;5068720;28;19985;-73
2022/11/25 08:41:25;;;;;;;;;;;8.20;97.80;;;;;;5070288;28;20369;-73
2022/11/25 08:43:51;;;;;;;;;;;8.30;97.50;;;;;;5067107;28;19916;-73
2022/11/25 08:46:18;;;;;;;;;;;8.30;97.50;;;;;;5069113;28;19958;-73
2022/11/25 08:48:44;;;;;;;;;;;8.30;97.40;;;;;;5064986;28;20013;-72
2022/11/25 08:51:12;;;;;;;;;;;8.30;97.40;;;;;;5069794;28;20365;-73
2022/11/25 08:53:37;;;;;;;;;;;8.30;97.40;;;;;;5069943;28;19915;-73
2022/11/25 08:56:04;;;;;;;;;;;8.30;97.40;;;;;;5076905;28;19916;-73
2022/11/25 08:58:29;;;;;;;;;;;8.30;97.40;;;;;;5069622;28;19959;-73
2022/11/25 09:00:55;;;;;;;;;;;8.30;97.50;;;;;;5069044;28;19986;-73
2022/11/25 09:03:21;;;;;;;;;;;8.30;97.50;;;;;;5070076;28;20038;-73
2022/11/25 09:05:47;;;;;;;;;;;8.30;97.60;;;;;;5067801;28;19909;-73
2022/11/25 09:08:13;;;;;;;;;;;8.30;97.60;;;;;;5054030;28;19916;-73
2022/11/25 09:10:38;;;;;;;;;;;8.30;97.60;;;;;;5049372;28;20012;-72
2022/11/25 09:13:04;;;;;;;;;;;8.30;97.60;;;;;;5069462;28;19974;-72
2022/11/25 09:15:30;;;;;;;;;;;8.30;97.60;;;;;;5069481;28;19962;-73
2022/11/25 09:17:59;;;;;;;;;;;8.30;97.60;;;;;;5069921;28;19970;-73
2022/11/25 09:20:24;;;;;;;;;;;8.30;97.60;;;;;;5078685;28;20515;-73
2022/11/25 09:22:50;;;;;;;;;;;8.40;97.70;;;;;;5089399;28;20026;-72
2022/11/25 09:25:15;;;;;;;;;;;8.40;97.70;;;;;;5088256;28;19918;-73
2022/11/25 09:27:41;;;;;;;;;;;8.40;97.80;;;;;;5089919;28;19943;-73
2022/11/25 09:30:07;;;;;;;;;;;8.40;97.70;;;;;;5082814;28;19959;-72
2022/11/25 09:32:32;;;;;;;;;;;8.40;97.70;;;;;;5089805;28;20363;-73
2022/11/25 09:34:58;;;;;;;;;;;8.40;97.70;;;;;;5089676;28;19946;-73
2022/11/25 09:37:23;;;;;;;;;;;8.40;97.70;;;;;;5086245;28;19950;-73
2022/11/25 09:39:54;;;;;;;;;;;8.40;97.70;;;;;;5088978;28;19987;-73
2022/11/25 09:48:20;;;;;;;;;;;8.40;97.70;;;;;;5047707;28;20315;-73
2022/11/25 09:51:05;;;;;;;;;;;8.40;97.70;;;;;;5071192;28;19912;-73
2022/11/25 09:53:36;;;;;;;;;;;8.40;97.70;;;;;;5087101;28;19916;-74
2022/11/25 09:56:03;;;;;;;;;;;8.40;97.80;;;;;;5088973;28;19999;-73
2022/11/25 09:58:31;;;;;;;;;;;8.40;97.70;;;;;;5087686;28;19911;-73
2022/11/25 10:00:57;;;;;;;;;;;8.50;97.70;;;;;;5073971;28;19920;-73
2022/11/25 10:03:32;;;;;;;;;;;8.50;97.60;;;;;;5068127;28;19913;-72
2022/11/25 10:05:58;;;;;;;;;;;8.50;97.50;;;;;;5066035;28;20407;-72
2022/11/25 10:08:26;;;;;;;;;;;8.60;97.80;;;;;;5066035;28;19916;-73
2022/11/25 10:10:54;;;;;;;;;;;8.70;97.80;;;;;;5066352;28;20377;-72
2022/11/25 10:13:26;;;;;;;;;;;8.70;97.60;;;;;;5067700;28;19915;-73
2022/11/25 10:15:53;;;;;;;;;;;8.70;97.60;;;;;;5064864;28;19913;-74
2022/11/25 10:18:22;;;;;;;;;;;8.70;97.50;;;;;;5068801;28;19917;-73
2022/11/25 10:20:49;;;;;;;;;;;8.70;97.60;;;;;;5068253;28;19913;-74
2022/11/25 10:23:26;;;;;;;;;;;8.80;97.60;;;;;;5067140;28;19978;-73
2022/11/25 10:25:53;;;;;;;;;;;8.70;97.80;;;;;;5065561;28;20171;-73
2022/11/25 10:28:29;;;;;;;;;;;8.70;97.60;;;;;;5067713;28;20013;-73
2022/11/25 10:31:13;;;;;;;;;;;8.80;97.70;;;;;;5057478;28;19935;-72
2022/11/25 10:33:42;;;;;;;;;;;8.80;97.60;;;;;;5078890;28;20615;-73
2022/11/25 10:36:08;;;;;;;;;;;8.80;97.70;;;;;;5088186;28;19969;-73
2022/11/25 10:38:33;;;;;;;;;;;8.90;97.70;;;;;;5070086;28;19912;-72
2022/11/25 10:41:01;;;;;;;;;;;8.90;97.50;;;;;;5067526;28;20357;-73
2022/11/25 10:43:26;;;;;;;;;;;8.90;97.60;;;;;;5068121;28;19917;-73
2022/11/25 10:46:07;;;;;;;;;;;8.90;97.50;;;;;;5068302;28;19912;-73
2022/11/25 10:48:44;;;;;;;;;;;8.90;97.50;;;;;;5066638;28;19912;-73
2022/11/25 10:51:09;;;;;;;;;;;9.00;97.40;;;;;;5086181;28;19923;-73
2022/11/25 10:53:35;;;;;;;;;;;9.00;97.60;;;;;;5087095;28;19916;-73
2022/11/25 10:56:03;;;;;;;;;;;9.10;97.30;;;;;;5086907;28;19973;-73
2022/11/25 10:58:28;;;;;;;;;;;9.10;97.50;;;;;;5087199;28;20376;-73
2022/11/25 11:01:01;;;;;;;;;;;9.10;97.30;;;;;;5073818;28;19913;-73
2022/11/25 11:03:26;;;;;;;;;;;9.10;97.30;;;;;;5066741;28;19920;-73
2022/11/25 11:05:53;;;;;;;;;;;9.10;97.70;;;;;;5073057;28;19916;-73
2022/11/25 11:08:22;;;;;;;;;;;9.10;97.40;;;;;;5070968;28;20392;-73
2022/11/25 11:11:07;;;;;;;;;;;9.10;97.20;;;;;;5066096;28;19924;-72
2022/11/25 11:13:33;;;;;;;;;;;9.10;97.30;;;;;;5066513;28;20381;-73
2022/11/25 11:15:58;;;;;;;;;;;9.10;97.40;;;;;;5066483;28;19939;-72
2022/11/25 11:18:26;;;;;;;;;;;9.20;97.30;;;;;;5066474;28;19950;-73
2022/11/25 11:20:53;;;;;;;;;;;9.20;97.30;;;;;;5079264;28;19924;-73
2022/11/25 11:23:19;;;;;;;;;;;9.20;97.40;;;;;;5071473;28;19999;-73
2022/11/25 11:25:59;;;;;;;;;;;9.20;97.30;;;;;;5078768;28;20002;-73
2022/11/25 11:28:27;;;;;;;;;;;9.20;97.30;;;;;;5086810;28;19920;-73
2022/11/25 11:30:58;;;;;;;;;;;9.20;97.30;;;;;;5073541;28;19913;-73
2022/11/25 11:33:33;;;;;;;;;;;9.20;97.40;;;;;;5066455;28;20419;-73
2022/11/25 11:36:11;;;;;;;;;;;9.20;97.30;;;;;;5066475;28;19959;-73
2022/11/25 11:38:42;;;;;;;;;;;9.20;97.40;;;;;;5055942;28;20588;-73
2022/11/25 11:41:13;;;;;;;;;;;9.20;97.40;;;;;;5066137;28;19919;-73
2022/11/25 11:43:39;;;;;;;;;;;9.20;97.50;;;;;;5065756;28;20453;-73
2022/11/25 11:46:04;;;;;;;;;;;9.30;97.40;;;;;;5065999;28;19950;-73
2022/11/25 11:48:38;;;;;;;;;;;9.30;97.50;;;;;;5066045;28;20007;-73
2022/11/25 11:51:06;;;;;;;;;;;9.20;97.40;;;;;;5065910;28;19912;-75
2022/11/25 11:53:50;;;;;;;;;;;9.30;97.30;;;;;;5065895;28;19924;-75
2022/11/25 11:56:34;;;;;;;;;;;9.30;97.40;;;;;;5067214;28;20235;-75
2022/11/25 11:59:18;;;;;;;;;;;9.30;97.40;;;;;;5065888;28;19916;-75
2022/11/25 12:01:52;;;;;;;;;;;9.30;97.30;;;;;;5063906;28;20376;-75
2022/11/25 12:04:29;;;;;;;;;;;9.30;97.30;;;;;;5066530;28;19999;-75
2022/11/25 12:06:58;;;;;;;;;;;9.30;97.40;;;;;;5062875;28;19909;-75
2022/11/25 12:09:24;;;;;;;;;;;9.30;97.30;;;;;;5046517;28;20473;-75
2022/11/25 12:11:57;;;;;;;;;;;9.30;97.40;;;;;;5054847;28;20684;-75
2022/11/25 12:14:22;;;;;;;;;;;9.40;97.30;;;;;;5066919;28;19913;-75
2022/11/25 12:16:54;;;;;;;;;;;9.40;97.30;;;;;;5066722;28;19927;-75
2022/11/25 12:19:28;;;;;;;;;;;9.40;97.30;;;;;;5066838;28;19909;-75
2022/11/25 12:21:59;;;;;;;;;;;9.40;97.40;;;;;;5086957;28;19943;-75
2022/11/25 12:24:48;;;;;;;;;;;9.40;97.30;;;;;;5086858;28;19970;-75
2022/11/25 12:27:13;;;;;;;;;;;9.40;97.40;;;;;;5086888;28;19912;-76
2022/11/25 12:29:51;;;;;;;;;;;9.40;97.40;;;;;;5073769;28;19989;-75
2022/11/25 12:32:17;;;;;;;;;;;9.40;97.30;;;;;;5066258;28;19913;-75
2022/11/25 12:34:47;;;;;;;;;;;9.50;97.30;;;;;;5066510;28;20531;-75
2022/11/25 12:37:17;;;;;;;;;;;9.50;97.40;;;;;;5066446;28;19919;-75
2022/11/25 12:39:54;;;;;;;;;;;9.50;97.70;;;;;;5066414;28;19912;-75
2022/11/25 12:42:22;;;;;;;;;;;9.50;97.40;;;;;;5066398;28;19958;-75
2022/11/25 12:44:48;;;;;;;;;;;9.50;97.40;;;;;;5067473;28;19948;-75
2022/11/25 12:47:13;;;;;;;;;;;9.50;97.40;;;;;;5086647;28;19943;-75
2022/11/25 12:49:47;;;;;;;;;;;9.60;97.40;;;;;;5086235;28;19916;-75
2022/11/25 12:52:12;;;;;;;;;;;9.60;97.60;;;;;;5086339;28;20474;-75
2022/11/25 12:54:43;;;;;;;;;;;9.60;97.40;;;;;;5086541;28;19920;-75
2022/11/25 12:57:28;;;;;;;;;;;9.60;97.40;;;;;;5086641;28;19966;-74
2022/11/25 13:00:08;;;;;;;;;;;9.60;97.30;;;;;;5073353;28;19913;-73
2022/11/25 13:02:45;;;;;;;;;;;9.60;97.20;;;;;;5063718;28;19961;-72
2022/11/25 13:05:11;;;;;;;;;;;9.60;97.40;;;;;;5085199;28;19919;-73
2022/11/25 13:07:42;;;;;;;;;;;9.60;97.30;;;;;;5076330;28;19909;-73
2022/11/25 13:10:27;;;;;;;;;;;9.60;97.30;;;;;;5065903;28;19916;-73
2022/11/25 13:13:01;;;;;;;;;;;9.70;97.30;;;;;;5065165;28;20335;-73
2022/11/25 13:15:30;;;;;;;;;;;9.70;97.10;;;;;;5069406;28;20472;-73
2022/11/25 13:18:00;;;;;;;;;;;9.70;97.20;;;;;;5068615;28;20570;-73
2022/11/25 13:20:26;;;;;;;;;;;9.80;97.20;;;;;;5083172;28;19939;-72
2022/11/25 13:23:03;;;;;;;;;;;9.80;97.20;;;;;;5069653;28;20404;-73
2022/11/25 13:25:29;;;;;;;;;;;9.80;97.30;;;;;;5079605;28;20417;-73
2022/11/25 13:27:56;;;;;;;;;;;9.80;97.10;;;;;;5089950;28;19912;-73
2022/11/25 13:30:30;;;;;;;;;;;9.80;97.30;;;;;;5081192;28;19913;-73
2022/11/25 13:32:56;;;;;;;;;;;9.80;97.00;;;;;;5069680;28;20582;-73
2022/11/25 13:35:23;;;;;;;;;;;9.80;97.10;;;;;;5077445;28;19958;-73
2022/11/25 13:37:49;;;;;;;;;;;9.80;97.20;;;;;;5076965;28;20549;-73
2022/11/25 13:40:17;;;;;;;;;;;9.80;97.20;;;;;;5069085;28;20573;-73
2022/11/25 13:42:43;;;;;;;;;;;9.80;97.20;;;;;;5067941;28;20354;-73
2022/11/25 13:45:23;;;;;;;;;;;9.80;97.30;;;;;;5069415;28;19913;-73
2022/11/25 13:47:49;;;;;;;;;;;9.80;97.40;;;;;;5069180;28;20302;-73
2022/11/25 13:50:14;;;;;;;;;;;9.80;97.30;;;;;;5077138;28;19951;-72
2022/11/25 13:52:41;;;;;;;;;;;9.80;97.40;;;;;;5071469;28;20377;-73
2022/11/25 13:55:16;;;;;;;;;;;9.80;97.30;;;;;;5083388;28;19956;-73
2022/11/25 13:57:45;;;;;;;;;;;9.80;97.30;;;;;;5065559;28;20011;-73
2022/11/25 14:00:10;;;;;;;;;;;9.80;97.30;;;;;;5067478;28;19912;-73
2022/11/25 14:02:45;;;;;;;;;;;9.80;97.30;;;;;;5068854;28;19923;-73
2022/11/25 14:05:29;;;;;;;;;;;9.80;97.30;;;;;;5067865;28;19974;-73
2022/11/25 14:08:13;;;;;;;;;;;9.80;97.40;;;;;;5062691;28;19916;-73
2022/11/25 14:10:45;;;;;;;;;;;9.80;97.30;;;;;;5066210;28;20413;-72
2022/11/25 14:13:19;;;;;;;;;;;9.80;97.40;;;;;;5065352;28;20007;-73
2022/11/25 14:15:50;;;;;;;;;;;9.80;97.50;;;;;;5067815;28;19939;-73
2022/11/25 14:18:31;;;;;;;;;;;9.80;97.40;;;;;;5067901;28;20314;-73
2022/11/25 14:20:59;;;;;;;;;;;9.80;97.40;;;;;;5081429;28;20423;-73
2022/11/25 14:23:27;;;;;;;;;;;9.80;97.40;;;;;;5087887;28;20365;-73
2022/11/25 14:25:54;;;;;;;;;;;9.80;97.30;;;;;;5078130;28;19924;-73
2022/11/25 14:28:23;;;;;;;;;;;9.80;97.40;;;;;;5067291;28;20570;-73
2022/11/25 14:30:50;;;;;;;;;;;9.80;97.30;;;;;;5059662;28;19919;-73
2022/11/25 14:33:30;;;;;;;;;;;9.80;97.30;;;;;;5047598;28;19913;-73
2022/11/25 14:35:59;;;;;;;;;;;9.80;97.40;;;;;;5059607;28;19924;-74
2022/11/25 14:38:28;;;;;;;;;;;9.80;97.30;;;;;;5064727;28;19951;-74
2022/11/25 14:40:59;;;;;;;;;;;9.80;97.30;;;;;;5066904;28;19916;-73
2022/11/25 14:43:25;;;;;;;;;;;9.80;97.40;;;;;;5067267;28;19939;-73